Time;durP1;ratioP1;P1;durP2;ratioP2;P2;SDS_P1;SDS_P2;PMS_P1;PMS_P2;Temp;Humidity;BMP_temperature;BMP_pressure;BME280_temperature;BME280_humidity;BME280_pressure;Samples;Min_cycle;Max_cycle;Signal;HPM_P1;HPM_P2
2022/07/11 00:01:13;;;;;;;;;;;;;;;19.92;39.42;100074.59;4310364;32;20066;-79
2022/07/11 00:03:40;;;;;;;;;;;;;;;20.10;39.17;100075.13;4316422;32;19984;-79
2022/07/11 00:06:08;;;;;;;;;;;;;;;19.93;39.80;100084.19;4310261;32;20003;-80
2022/07/11 00:08:35;;;;;;;;;;;;;;;19.90;40.00;100079.00;4310218;33;20039;-79
2022/07/11 00:11:02;;;;;;;;;;;;;;;19.98;39.62;100085.00;4310432;33;20040;-78
2022/07/11 00:13:29;;;;;;;;;;;;;;;19.97;40.24;100091.16;4310779;33;20040;-78
2022/07/11 00:15:55;;;;;;;;;;;;;;;20.04;39.54;100083.12;4310073;33;20783;-79
2022/07/11 00:18:25;;;;;;;;;;;;;;;20.12;39.69;100083.88;4310204;33;19996;-79
2022/07/11 00:20:52;;;;;;;;;;;;;;;20.08;39.56;100084.81;4310786;33;20007;-80
2022/07/11 00:23:19;;;;;;;;;;;;;;;20.07;39.52;100090.97;4332774;33;20055;-79
2022/07/11 00:25:46;;;;;;;;;;;;;;;20.19;39.20;100090.72;4310572;33;19972;-78
2022/07/11 00:28:13;;;;;;;;;;;;;;;19.87;40.56;100094.81;4293036;33;20010;-80
2022/07/11 00:30:40;;;;;;;;;;;;;;;19.73;40.77;100096.84;4309844;33;20334;-78
2022/07/11 00:33:07;;;;;;;;;;;;;;;19.74;41.01;100099.41;4310325;33;20003;-79
2022/07/11 00:35:33;;;;;;;;;;;;;;;19.69;40.58;100089.91;4311014;33;20311;-83
2022/07/11 00:38:00;;;;;;;;;;;;;;;19.87;40.50;100100.06;4305090;32;20062;-79
2022/07/11 00:40:27;;;;;;;;;;;;;;;19.86;40.29;100085.22;4328153;32;19995;-78
2022/07/11 00:42:54;;;;;;;;;;;;;;;19.87;40.60;100078.19;4317969;33;20019;-80
2022/07/11 00:45:21;;;;;;;;;;;;;;;19.81;40.88;100079.16;4311894;33;20002;-82
2022/07/11 00:47:48;;;;;;;;;;;;;;;19.67;40.99;100076.78;4312123;33;19992;-80
2022/07/11 00:50:15;;;;;;;;;;;;;;;19.74;40.77;100074.91;4312571;33;20564;-80
2022/07/11 00:52:41;;;;;;;;;;;;;;;19.68;41.07;100072.41;4309452;32;20023;-80
2022/07/11 00:55:10;;;;;;;;;;;;;;;19.56;41.43;100075.19;4314069;33;19976;-80
2022/07/11 00:57:37;;;;;;;;;;;;;;;19.46;41.99;100085.00;3716544;32;20002499;-80
2022/07/11 01:00:05;;;;;;;;;;;;;;;19.73;41.05;100073.19;4335129;32;19996;-84
2022/07/11 01:02:32;;;;;;;;;;;;;;;19.76;41.08;100080.16;4312071;33;20028;-80
2022/07/11 01:04:59;;;;;;;;;;;;;;;19.51;41.51;100070.91;4312178;33;19999;-80
2022/07/11 01:07:26;;;;;;;;;;;;;;;19.74;40.98;100072.28;4334777;33;19972;-82
2022/07/11 01:09:53;;;;;;;;;;;;;;;19.58;41.53;100070.78;4334033;33;19984;-80
2022/07/11 01:12:19;;;;;;;;;;;;;;;19.77;41.08;100071.37;4297241;32;19983;-79
2022/07/11 01:14:53;;;;;;;;;;;;;;;19.74;40.87;100069.66;4332960;33;20014;-80
2022/07/11 01:17:20;;;;;;;;;;;;;;;19.58;41.14;100073.44;4310995;33;20341;-80
2022/07/11 01:19:47;;;;;;;;;;;;;;;19.62;41.34;100069.84;4311025;33;20062;-80
2022/07/11 01:22:14;;;;;;;;;;;;;;;19.74;40.99;100067.03;4311270;33;20266;-81
2022/07/11 01:24:41;;;;;;;;;;;;;;;19.60;41.29;100066.41;4310651;33;20049;-80
2022/07/11 01:27:08;;;;;;;;;;;;;;;19.54;41.61;100063.87;4311481;33;20526;-80
2022/07/11 01:29:35;;;;;;;;;;;;;;;19.73;40.98;100070.56;4333603;32;20481;-82
2022/07/11 01:32:02;;;;;;;;;;;;;;;19.69;40.89;100074.16;4311005;33;19980;-79
2022/07/11 01:34:29;;;;;;;;;;;;;;;19.56;41.23;100073.47;4311500;33;19998;-79
2022/07/11 01:36:55;;;;;;;;;;;;;;;19.43;41.90;100072.81;4310719;33;19988;-79
2022/07/11 01:39:22;;;;;;;;;;;;;;;19.46;41.99;100078.00;4310487;32;19988;-79
2022/07/11 01:41:49;;;;;;;;;;;;;;;19.64;41.75;100070.72;4311043;33;19992;-80
2022/07/11 01:44:16;;;;;;;;;;;;;;;19.51;41.94;100073.53;4305500;32;20044;-79
2022/07/11 01:46:43;;;;;;;;;;;;;;;19.50;41.93;100069.19;4333698;32;20445;-80
2022/07/11 01:49:10;;;;;;;;;;;;;;;19.44;42.04;100066.66;4311016;33;20026;-81
2022/07/11 01:51:37;;;;;;;;;;;;;;;19.60;41.64;100069.88;4311171;33;20040;-81
2022/07/11 01:54:04;;;;;;;;;;;;;;;19.57;41.77;100063.81;4288949;32;20071;-80
2022/07/11 01:56:32;;;;;;;;;;;;;;;19.47;41.94;100065.75;4311256;33;20751;-85
2022/07/11 01:59:01;;;;;;;;;;;;;;;19.54;41.89;100069.12;4296261;33;20048;-79
2022/07/11 02:01:29;;;;;;;;;;;;;;;19.47;42.16;100074.47;4296387;33;20326;-80
2022/07/11 02:03:56;;;;;;;;;;;;;;;19.54;41.78;100070.00;4297305;33;20063;-80
2022/07/11 02:06:23;;;;;;;;;;;;;;;19.59;41.71;100062.00;4286737;33;788396;-81
2022/07/11 02:08:50;;;;;;;;;;;;;;;19.59;41.60;100062.91;4310233;33;20360;-80
2022/07/11 02:11:17;;;;;;;;;;;;;;;19.51;41.75;100065.66;4310616;32;20027;-80
2022/07/11 02:13:43;;;;;;;;;;;;;;;19.41;41.88;100058.81;4310273;33;20317;-79
2022/07/11 02:16:11;;;;;;;;;;;;;;;19.51;41.79;100065.66;4315972;32;20023;-80
2022/07/11 02:18:39;;;;;;;;;;;;;;;19.26;42.52;100069.56;4311597;33;20726;-79
2022/07/11 02:21:05;;;;;;;;;;;;;;;19.51;42.14;100060.41;4311888;33;20088;-84
2022/07/11 02:23:35;;;;;;;;;;;;;;;19.41;42.37;100069.31;4311578;33;20638;-79
2022/07/11 02:26:02;;;;;;;;;;;;;;;19.31;43.04;100061.63;4311320;33;19992;-79
2022/07/11 02:28:29;;;;;;;;;;;;;;;19.33;43.15;100068.56;4311737;33;20002;-79
2022/07/11 02:30:56;;;;;;;;;;;;;;;19.33;42.77;100071.19;4311385;33;20061;-79
2022/07/11 02:33:23;;;;;;;;;;;;;;;19.26;43.21;100065.19;4311822;33;20004;-85
2022/07/11 02:35:50;;;;;;;;;;;;;;;19.25;42.93;100075.72;4311832;33;19992;-79
2022/07/11 02:38:17;;;;;;;;;;;;;;;19.52;42.20;100067.37;4311218;33;19996;-79
2022/07/11 02:40:47;;;;;;;;;;;;;;;19.46;42.43;100082.38;4311383;33;20428;-79
2022/07/11 02:43:14;;;;;;;;;;;;;;;18.92;43.82;100080.59;4311192;33;19996;-79
2022/07/11 02:45:41;;;;;;;;;;;;;;;19.20;43.29;100082.78;4311589;33;20007;-81
2022/07/11 02:48:09;;;;;;;;;;;;;;;19.38;42.44;100082.50;4311487;33;19992;-79
2022/07/11 02:50:35;;;;;;;;;;;;;;;18.98;43.72;100090.97;4317253;32;20460;-79
2022/07/11 02:53:03;;;;;;;;;;;;;;;18.95;43.76;100080.53;4309750;33;20095;-80
2022/07/11 02:55:30;;;;;;;;;;;;;;;19.13;43.16;100089.03;4311540;33;20323;-79
2022/07/11 02:57:57;;;;;;;;;;;;;;;19.10;43.40;100078.56;4310386;32;20015;-78
2022/07/11 03:00:24;;;;;;;;;;;;;;;19.37;42.54;100080.78;4326251;33;20002;-81
2022/07/11 03:02:51;;;;;;;;;;;;;;;19.29;42.62;100075.63;4334113;33;20319;-80
2022/07/11 03:05:18;;;;;;;;;;;;;;;19.20;42.92;100080.16;4311434;33;19993;-79
2022/07/11 03:07:45;;;;;;;;;;;;;;;19.12;43.29;100076.81;4311221;33;20039;-79
2022/07/11 03:10:12;;;;;;;;;;;;;;;19.10;43.34;100078.56;4311374;33;19976;-80
2022/07/11 03:12:39;;;;;;;;;;;;;;;19.26;42.64;100074.81;4311289;33;20063;-79
2022/07/11 03:15:06;;;;;;;;;;;;;;;19.21;42.93;100076.66;4316394;32;20011;-79
2022/07/11 03:17:33;;;;;;;;;;;;;;;19.25;42.84;100075.72;4307600;33;19984;-80
2022/07/11 03:20:00;;;;;;;;;;;;;;;19.15;42.98;100074.13;4310181;33;20389;-79
2022/07/11 03:22:27;;;;;;;;;;;;;;;19.15;43.33;100071.50;4311400;33;20038;-79
2022/07/11 03:24:55;;;;;;;;;;;;;;;19.31;42.70;100073.00;4334673;33;19992;-80
2022/07/11 03:27:21;;;;;;;;;;;;;;;19.37;42.35;100072.91;4311203;33;20007;-79
2022/07/11 03:29:48;;;;;;;;;;;;;;;18.87;43.45;100071.91;4333906;32;19975;-80
2022/07/11 03:32:15;;;;;;;;;;;;;;;19.25;42.34;100073.09;4310841;33;20022;-79
2022/07/11 03:35:40;;;;;;;;;;;;;;;19.30;42.12;100076.50;4311145;33;20000;-79
2022/07/11 03:37:30;;;;;;;;;;;;;;;19.29;42.10;100069.53;4311302;33;19979;-79
2022/07/11 03:39:57;;;;;;;;;;;;;;;19.33;42.03;100080.84;4311230;33;19992;-79
2022/07/11 03:42:31;;;;;;;;;;;;;;;19.17;42.57;100075.81;4311098;33;20003;-79
2022/07/11 03:44:58;;;;;;;;;;;;;;;19.21;42.48;100084.53;4311024;33;20040;-80
2022/07/11 03:47:24;;;;;;;;;;;;;;;19.23;42.47;100082.72;4310882;33;19985;-80
2022/07/11 03:49:51;;;;;;;;;;;;;;;19.34;42.44;100078.19;4311028;33;20311;-80
2022/07/11 03:52:18;;;;;;;;;;;;;;;19.34;42.42;100083.44;4305288;32;19992;-79
2022/07/11 03:54:45;;;;;;;;;;;;;;;19.34;43.13;100087.84;4332307;33;19984;-79
2022/07/11 03:57:12;;;;;;;;;;;;;;;19.34;43.12;100087.84;4311092;33;19992;-80
2022/07/11 03:59:39;;;;;;;;;;;;;;;19.26;43.15;100095.81;4326241;32;19967;-79
2022/07/11 04:02:06;;;;;;;;;;;;;;;19.33;43.13;100097.44;4310895;33;19999;-79
2022/07/11 04:04:33;;;;;;;;;;;;;;;19.30;43.73;100089.62;4310574;33;19996;-80
2022/07/11 04:07:00;;;;;;;;;;;;;;;19.38;43.51;100089.50;4310599;33;20060;-80
2022/07/11 04:09:26;;;;;;;;;;;;;;;19.39;43.15;100092.09;4308383;33;20040;-79
2022/07/11 04:11:54;;;;;;;;;;;;;;;19.31;43.85;100093.12;4333358;33;20028;-79
2022/07/11 04:14:21;;;;;;;;;;;;;;;19.49;43.77;100104.19;4321433;33;19996;-79
2022/07/11 04:16:48;;;;;;;;;;;;;;;19.44;43.84;100099.91;4310999;33;20055;-80
2022/07/11 04:19:15;;;;;;;;;;;;;;;19.59;42.59;100109.28;4309721;32;19991;-79
2022/07/11 04:21:42;;;;;;;;;;;;;;;19.66;42.79;100105.72;4310422;33;19985;-80
2022/07/11 04:24:09;;;;;;;;;;;;;;;19.48;43.84;100112.97;4310710;33;20055;-81
2022/07/11 04:26:36;;;;;;;;;;;;;;;19.81;42.32;100105.44;4310053;33;19996;-79
2022/07/11 04:29:03;;;;;;;;;;;;;;;19.45;43.89;100107.75;4333398;33;20398;-80
2022/07/11 04:31:29;;;;;;;;;;;;;;;19.54;45.04;100111.13;4310280;33;20015;-78
2022/07/11 04:33:56;;;;;;;;;;;;;;;19.57;44.92;100121.59;4310242;32;19988;-79
2022/07/11 04:36:23;;;;;;;;;;;;;;;19.69;44.60;100116.19;4310508;33;20090;-79
2022/07/11 04:38:50;;;;;;;;;;;;;;;20.01;42.72;100109.50;4310471;33;20047;-80
2022/07/11 04:41:17;;;;;;;;;;;;;;;19.83;43.36;100114.16;4309881;33;19984;-81
2022/07/11 04:43:44;;;;;;;;;;;;;;;19.70;44.35;100110.03;4309977;33;19988;-81
2022/07/11 04:46:11;;;;;;;;;;;;;;;19.81;43.39;100108.06;4309655;33;19984;-80
2022/07/11 04:48:38;;;;;;;;;;;;;;;19.52;44.42;100125.13;4309818;33;19972;-77
2022/07/11 04:51:06;;;;;;;;;;;;;;;19.87;43.21;100121.09;4309611;33;20063;-81
2022/07/11 04:53:33;;;;;;;;;;;;;;;20.10;42.15;100112.81;4309264;33;20259;-83
2022/07/11 04:56:00;;;;;;;;;;;;;;;19.93;42.95;100113.09;4332676;33;20335;-87
2022/07/11 04:58:27;;;;;;;;;;;;;;;19.95;43.62;100120.97;4319395;33;20390;-82
2022/07/11 05:00:54;;;;;;;;;;;;;;;19.97;42.82;100121.78;4308394;33;20036;-81
2022/07/11 05:03:21;;;;;;;;;;;;;;;19.92;43.91;100124.53;4309922;33;19983;-81
2022/07/11 05:05:48;;;;;;;;;;;;;;;19.88;43.25;100112.34;4309778;33;20336;-83
2022/07/11 05:08:15;;;;;;;;;;;;;;;19.79;43.89;100128.25;4309811;33;19976;-80
2022/07/11 05:10:42;;;;;;;;;;;;;;;19.97;43.15;100122.69;4309753;33;19976;-80
2022/07/11 05:13:09;;;;;;;;;;;;;;;20.01;43.05;100112.13;4310087;33;20043;-82
2022/07/11 05:15:37;;;;;;;;;;;;;;;19.96;43.12;100120.94;4309314;32;20006;-85
2022/07/11 05:18:04;;;;;;;;;;;;;;;20.10;42.60;100122.44;4291973;33;19984;-79
2022/07/11 05:20:31;;;;;;;;;;;;;;;20.12;42.39;100115.41;4309429;33;20004;-80
2022/07/11 05:22:58;;;;;;;;;;;;;;;20.16;42.21;100117.06;4311946;33;20007;-84
2022/07/11 05:25:25;;;;;;;;;;;;;;;20.49;41.53;100114.72;4311632;33;20006;-81
2022/07/11 05:27:52;;;;;;;;;;;;;;;19.91;43.29;100122.78;4311326;33;20451;-81
2022/07/11 05:30:19;;;;;;;;;;;;;;;20.27;41.97;100130.91;4311916;33;19988;-81
2022/07/11 05:32:46;;;;;;;;;;;;;;;19.97;43.37;100133.19;4310350;33;20003;-84
2022/07/11 05:35:13;;;;;;;;;;;;;;;20.05;42.26;100126.94;4309595;33;20004;-79
2022/07/11 05:37:40;;;;;;;;;;;;;;;20.07;41.96;100133.00;4310739;33;20012;-81
2022/07/11 05:40:08;;;;;;;;;;;;;;;19.65;43.78;100130.22;4311513;33;19985;-85
2022/07/11 05:42:35;;;;;;;;;;;;;;;19.76;42.79;100144.06;4311692;33;20007;-80
2022/07/11 05:45:02;;;;;;;;;;;;;;;20.04;41.96;100138.31;4311848;33;20038;-80
2022/07/11 05:47:29;;;;;;;;;;;;;;;19.88;42.67;100138.63;4311645;33;20358;-86
2022/07/11 05:49:57;;;;;;;;;;;;;;;20.22;41.52;100143.25;4334495;33;20270;-82
2022/07/11 05:52:23;;;;;;;;;;;;;;;19.95;42.54;100134.97;4311311;33;20007;-82
2022/07/11 05:54:50;;;;;;;;;;;;;;;20.07;42.47;100135.63;4333884;33;20335;-83
2022/07/11 05:57:17;;;;;;;;;;;;;;;19.84;43.83;100150.03;4314287;33;19976;-81
2022/07/11 05:59:45;;;;;;;;;;;;;;;20.04;43.60;100151.47;4336876;33;19984;-82
2022/07/11 06:02:13;;;;;;;;;;;;;;;20.25;42.01;100148.44;4325519;33;20000;-82
2022/07/11 06:04:42;;;;;;;;;;;;;;;19.85;43.68;100157.06;4316833;32;19996;-81
2022/07/11 06:07:09;;;;;;;;;;;;;;;20.08;43.16;100153.16;4311010;33;19980;-81
2022/07/11 06:09:36;;;;;;;;;;;;;;;20.23;42.28;100155.50;4311248;33;19992;-82
2022/07/11 06:12:03;;;;;;;;;;;;;;;20.32;42.04;100155.31;4311676;33;19984;-82
2022/07/11 06:14:30;;;;;;;;;;;;;;;20.14;42.86;100150.44;4310831;33;20393;-86
2022/07/11 06:16:57;;;;;;;;;;;;;;;20.31;42.61;100161.47;4326204;33;20040;-81
2022/07/11 06:19:24;;;;;;;;;;;;;;;20.57;41.59;100162.78;4325995;33;20023;-81
2022/07/11 06:21:52;;;;;;;;;;;;;;;20.37;42.41;100158.75;4326036;33;19998;-81
2022/07/11 06:24:19;;;;;;;;;;;;;;;21.00;41.22;100159.28;4334166;33;19984;-81
2022/07/11 06:26:46;;;;;;;;;;;;;;;21.50;40.88;100165.19;4332799;32;19994;-80
2022/07/11 06:29:13;;;;;;;;;;;;;;;21.68;40.00;100162.13;4300113;32;20000;-80
2022/07/11 06:31:41;;;;;;;;;;;;;;;22.20;38.26;100163.44;4311004;32;20015;-81
2022/07/11 06:34:08;;;;;;;;;;;;;;;22.56;38.03;100162.47;4310540;33;19988;-80
2022/07/11 06:36:35;;;;;;;;;;;;;;;22.86;37.05;100166.91;4311375;33;19999;-81
2022/07/11 06:39:01;;;;;;;;;;;;;;;22.71;36.92;100155.00;4310995;32;20080;-80
2022/07/11 06:41:29;;;;;;;;;;;;;;;22.90;36.73;100162.37;4311275;33;20044;-81
2022/07/11 06:43:55;;;;;;;;;;;;;;;22.95;36.66;100158.75;4311495;33;19985;-80
2022/07/11 06:46:26;;;;;;;;;;;;;;;23.20;36.41;100164.16;4311042;33;19968;-80
2022/07/11 06:48:53;;;;;;;;;;;;;;;23.32;36.24;100157.59;4311183;33;19992;-79
2022/07/11 06:51:21;;;;;;;;;;;;;;;23.75;34.44;100169.50;4311234;33;19992;-80
2022/07/11 06:53:48;;;;;;;;;;;;;;;23.74;34.30;100169.53;4310835;33;21364;-79
2022/07/11 06:56:16;;;;;;;;;;;;;;;23.76;34.66;100167.72;4310770;33;19980;-79
2022/07/11 06:58:42;;;;;;;;;;;;;;;23.96;34.63;100167.03;4311092;33;19992;-82
2022/07/11 07:01:09;;;;;;;;;;;;;;;24.21;34.25;100164.41;4311105;33;20008;-80
2022/07/11 07:03:37;;;;;;;;;;;;;;;24.43;33.38;100170.72;4315877;33;20530;-79
2022/07/11 07:06:05;;;;;;;;;;;;;;;24.22;35.77;100166.13;3976436;32;10008653;-80
2022/07/11 07:08:32;;;;;;;;;;;;;;;24.74;32.67;100166.97;4318171;33;20965;-79
2022/07/11 07:10:59;;;;;;;;;;;;;;;24.51;32.88;100173.09;4335020;33;21628;-79
2022/07/11 07:13:34;;;;;;;;;;;;;;;24.10;34.40;100168.31;4323588;33;19991;-79
2022/07/11 07:16:01;;;;;;;;;;;;;;;24.09;34.07;100171.88;4334983;33;20379;-80
2022/07/11 07:18:28;;;;;;;;;;;;;;;23.84;34.44;100176.25;4328523;32;19972;-80
2022/07/11 07:20:55;;;;;;;;;;;;;;;23.47;34.68;100177.41;4324667;33;20108;-80
2022/07/11 07:23:22;;;;;;;;;;;;;;;23.39;35.76;100175.03;4322911;32;20027;-79
2022/07/11 07:25:48;;;;;;;;;;;;;;;23.40;34.88;100170.59;4324744;33;20070;-79
2022/07/11 07:28:15;;;;;;;;;;;;;;;22.95;36.66;100169.31;4325099;33;20070;-81
2022/07/11 07:30:42;;;;;;;;;;;;;;;23.45;34.90;100173.94;4335164;33;20436;-80
2022/07/11 07:33:12;;;;;;;;;;;;;;;23.42;34.48;100174.94;4335032;33;19988;-80
2022/07/11 07:35:39;;;;;;;;;;;;;;;23.60;33.64;100175.25;4324974;33;19979;-79
2022/07/11 07:38:06;;;;;;;;;;;;;;;23.33;34.28;100174.34;4326160;32;19975;-80
2022/07/11 07:40:33;;;;;;;;;;;;;;;22.84;36.29;100170.47;4322989;32;20317;-80
2022/07/11 07:43:01;;;;;;;;;;;;;;;23.39;34.97;100174.16;4328613;32;20010;-80
2022/07/11 07:45:28;;;;;;;;;;;;;;;23.76;34.80;100173.00;4307930;33;20006;-80
2022/07/11 07:47:55;;;;;;;;;;;;;;;24.33;34.61;100169.28;4309494;33;19984;-80
2022/07/11 07:50:23;;;;;;;;;;;;;;;24.77;32.75;100167.72;4309341;33;20006;-79
2022/07/11 07:52:51;;;;;;;;;;;;;;;24.75;33.49;100171.31;4311265;33;19988;-81
2022/07/11 07:55:18;;;;;;;;;;;;;;;24.69;34.45;100171.56;4309535;33;19992;-80
2022/07/11 07:57:45;;;;;;;;;;;;;;;25.00;32.39;100166.84;4310790;33;19990;-80
2022/07/11 08:03:05;;;;;;;;;;;;;;;25.83;30.18;100158.28;4310854;33;20447;-81
2022/07/11 08:05:32;;;;;;;;;;;;;;;25.77;30.60;100153.22;4310368;33;20782;-81
2022/07/11 08:07:59;;;;;;;;;;;;;;;25.76;30.67;100151.50;4310656;33;19990;-81
2022/07/11 08:10:26;;;;;;;;;;;;;;;26.44;28.93;100150.31;4308572;33;19992;-81
2022/07/11 08:12:53;;;;;;;;;;;;;;;26.25;28.88;100149.41;4310258;33;19988;-80
2022/07/11 08:15:20;;;;;;;;;;;;;;;25.82;31.15;100145.09;4310605;33;19992;-80
2022/07/11 08:17:47;;;;;;;;;;;;;;;26.19;29.59;100144.38;4310549;33;19973;-82
2022/07/11 08:20:14;;;;;;;;;;;;;;;26.00;29.10;100143.44;4310436;33;20322;-81
2022/07/11 08:22:41;;;;;;;;;;;;;;;25.59;30.17;100149.53;4310222;33;20007;-81
2022/07/11 08:25:09;;;;;;;;;;;;;;;25.58;30.08;100152.25;4310489;33;20006;-81
2022/07/11 08:27:37;;;;;;;;;;;;;;;25.63;28.28;100152.94;4310359;33;20043;-80
2022/07/11 08:30:07;;;;;;;;;;;;;;;25.64;28.41;100150.19;4310234;33;20018;-81
2022/07/11 08:32:39;;;;;;;;;;;;;;;25.78;28.85;100149.63;4308960;33;19992;-81
2022/07/11 08:35:07;;;;;;;;;;;;;;;26.01;28.51;100147.84;4307192;33;20036;-81
2022/07/11 08:37:34;;;;;;;;;;;;;;;26.15;29.28;100148.09;4308619;33;20047;-81
2022/07/11 08:40:01;;;;;;;;;;;;;;;26.41;28.18;100145.16;4302022;33;19980;-81
2022/07/11 08:42:28;;;;;;;;;;;;;;;26.67;26.64;100140.50;4303006;33;20437;-81
2022/07/11 08:44:56;;;;;;;;;;;;;;;26.88;27.46;100144.81;4300262;33;20047;-81
2022/07/11 08:47:23;;;;;;;;;;;;;;;26.55;28.40;100135.75;4301404;33;19985;-82
2022/07/11 08:49:51;;;;;;;;;;;;;;;26.31;28.91;100132.37;4302919;33;20048;-81
2022/07/11 08:52:19;;;;;;;;;;;;;;;26.71;28.01;100136.78;4307723;33;19995;-81
2022/07/11 08:54:46;;;;;;;;;;;;;;;26.95;29.17;100133.91;4308121;33;19980;-81
2022/07/11 08:57:13;;;;;;;;;;;;;;;27.57;25.10;100138.03;4310832;33;20446;-81
2022/07/11 08:59:41;;;;;;;;;;;;;;;27.60;24.80;100137.91;4311489;33;20003;-82
2022/07/11 09:02:09;;;;;;;;;;;;;;;27.77;24.36;100124.63;4311200;33;19992;-80
2022/07/11 09:04:37;;;;;;;;;;;;;;;27.28;24.77;100137.66;4312343;33;19991;-81
2022/07/11 09:07:04;;;;;;;;;;;;;;;27.39;24.96;100128.31;4320164;32;20002;-81
2022/07/11 09:09:31;;;;;;;;;;;;;;;27.35;25.99;100136.44;4310702;33;20018;-83
2022/07/11 09:11:58;;;;;;;;;;;;;;;27.69;25.15;100125.91;4312204;33;20055;-82
2022/07/11 09:14:26;;;;;;;;;;;;;;;27.63;24.57;100113.78;4311935;33;20014;-81
2022/07/11 09:16:59;;;;;;;;;;;;;;;27.00;25.16;100118.63;4312266;33;19976;-81
2022/07/11 09:19:30;;;;;;;;;;;;;;;26.36;26.85;100125.94;4322717;33;20348;-81
2022/07/11 09:27:56;;;;;;;;;;;;;;;27.16;25.91;100114.34;4326897;33;20027;-81
2022/07/11 09:30:24;;;;;;;;;;;;;;;27.64;24.43;100107.53;4326838;33;19994;-81
2022/07/11 09:32:56;;;;;;;;;;;;;;;27.97;23.12;100106.78;4325098;33;20035;-84
2022/07/11 09:35:23;;;;;;;;;;;;;;;28.01;23.00;100095.03;4325032;33;20351;-83
2022/07/11 09:37:50;;;;;;;;;;;;;;;28.08;23.03;100095.56;4325268;33;20036;-82
2022/07/11 09:40:17;;;;;;;;;;;;;;;27.66;25.52;100105.63;4326381;33;20035;-82
2022/07/11 09:42:46;;;;;;;;;;;;;;;28.28;22.74;100098.91;4325320;33;20403;-82
2022/07/11 09:45:13;;;;;;;;;;;;;;;27.96;23.62;100097.09;4325100;33;20040;-82
2022/07/11 09:47:46;;;;;;;;;;;;;;;27.80;25.66;100092.56;4323425;32;20241;-82
2022/07/11 09:50:17;;;;;;;;;;;;;;;27.81;25.43;100094.25;4311948;33;19992;-82
2022/07/11 09:52:57;;;;;;;;;;;;;;;27.84;23.99;100092.41;4311444;33;20342;-82
2022/07/11 09:55:25;;;;;;;;;;;;;;;27.48;25.18;100102.13;4307692;33;20042;-82
2022/07/11 09:58:13;;;;;;;;;;;;;;;27.26;25.03;100097.00;4304061;33;20029;-83
2022/07/11 10:00:40;;;;;;;;;;;;;;;27.98;21.76;100089.88;4304023;33;20044;-83
2022/07/11 10:03:08;;;;;;;;;;;;;;;28.18;21.34;100087.03;4308792;33;19996;-84
2022/07/11 10:05:55;;;;;;;;;;;;;;;28.49;20.81;100096.06;4297118;33;20010;-82
2022/07/11 10:08:22;;;;;;;;;;;;;;;27.51;22.29;100086.00;4307846;33;19980;-82
2022/07/11 10:10:49;;;;;;;;;;;;;;;27.42;22.32;100096.25;4296953;33;20035;-81
2022/07/11 10:13:15;;;;;;;;;;;;;;;27.25;23.18;100089.97;4297303;33;20016;-82
2022/07/11 10:15:44;;;;;;;;;;;;;;;27.25;23.86;100089.97;4300117;33;20596;-81
2022/07/11 10:18:39;;;;;;;;;;;;;;;26.93;25.46;100098.56;4321661;33;19987;-81
2022/07/11 10:21:12;;;;;;;;;;;;;;;27.16;24.25;100093.06;4321647;33;19980;-82
2022/07/11 10:23:57;;;;;;;;;;;;;;;26.18;25.91;100089.59;4324414;33;20066;-81
2022/07/11 10:26:25;;;;;;;;;;;;;;;27.00;22.12;100084.09;4311497;32;19989;-81
2022/07/11 10:28:53;;;;;;;;;;;;;;;26.69;22.90;100093.50;4311649;33;20083;-81
2022/07/11 10:31:20;;;;;;;;;;;;;;;26.84;22.73;100084.81;4335525;33;20034;-82
2022/07/11 10:34:04;;;;;;;;;;;;;;;26.86;23.83;100082.94;4326034;33;20504;-82
2022/07/11 10:36:32;;;;;;;;;;;;;;;27.07;23.36;100080.19;4325543;33;20008;-81
2022/07/11 10:39:17;;;;;;;;;;;;;;;27.49;23.61;100071.06;4326164;33;19980;-82
2022/07/11 10:41:45;;;;;;;;;;;;;;;27.67;23.62;100056.84;4324927;33;20424;-81
2022/07/11 10:44:12;;;;;;;;;;;;;;;27.77;21.58;100060.78;4325786;32;19983;-82
2022/07/11 10:46:39;;;;;;;;;;;;;;;27.17;22.98;100070.00;4325904;33;20000;-81
2022/07/11 10:49:15;;;;;;;;;;;;;;;27.11;22.67;100076.44;4326199;33;19972;-80
2022/07/11 10:51:45;;;;;;;;;;;;;;;27.12;23.39;100072.84;4325724;33;20246;-79
2022/07/11 10:54:35;;;;;;;;;;;;;;;27.04;22.98;100069.72;4326432;33;20031;-81
2022/07/11 10:57:04;;;;;;;;;;;;;;;27.52;23.39;100054.97;4325892;33;20035;-81
2022/07/11 10:59:31;;;;;;;;;;;;;;;28.01;22.01;100057.78;4326197;33;20239;-82
2022/07/11 11:02:11;;;;;;;;;;;;;;;27.88;22.92;100062.03;4325051;33;19999;-82
2022/07/11 11:04:47;;;;;;;;;;;;;;;27.44;24.42;100051.81;4325018;33;20035;-82
2022/07/11 11:07:33;;;;;;;;;;;;;;;28.06;23.10;100055.75;4325677;32;20030;-82
2022/07/11 11:10:20;;;;;;;;;;;;;;;27.76;23.49;100053.72;4173924;32;5001059;-81
2022/07/11 11:13:11;;;;;;;;;;;;;;;27.54;24.16;100063.72;4325738;33;20035;-82
2022/07/11 11:15:41;;;;;;;;;;;;;;;27.16;25.03;100074.47;4311329;33;19996;-82
2022/07/11 11:18:28;;;;;;;;;;;;;;;27.74;25.23;100060.91;4332355;33;19988;-81
2022/07/11 11:20:55;;;;;;;;;;;;;;;27.27;25.22;100056.19;4318746;33;20015;-81
2022/07/11 11:23:22;;;;;;;;;;;;;;;26.86;26.53;100056.34;4317342;33;20334;-82
2022/07/11 11:25:49;;;;;;;;;;;;;;;27.27;24.31;100056.19;4324690;33;20050;-82
2022/07/11 11:28:20;;;;;;;;;;;;;;;27.15;24.21;100051.47;4325536;33;19993;-81
2022/07/11 11:30:53;;;;;;;;;;;;;;;27.20;24.05;100062.75;4325642;33;19976;-81
2022/07/11 11:33:21;;;;;;;;;;;;;;;27.08;23.87;100064.16;4325649;33;20011;-81
2022/07/11 11:36:07;;;;;;;;;;;;;;;27.21;23.45;100072.44;4336353;33;20090;-81
2022/07/11 11:38:34;;;;;;;;;;;;;;;27.10;24.10;100069.41;4336577;33;20015;-79
2022/07/11 11:41:01;;;;;;;;;;;;;;;26.73;24.04;100060.53;4317928;33;19983;-83
2022/07/11 11:43:28;;;;;;;;;;;;;;;26.11;26.51;100066.91;4324027;33;19996;-84
2022/07/11 11:45:55;;;;;;;;;;;;;;;26.83;23.37;100067.13;4325205;33;20313;-80
2022/07/11 11:48:35;;;;;;;;;;;;;;;26.65;24.25;100073.34;4322880;33;19984;-80
2022/07/11 11:51:06;;;;;;;;;;;;;;;26.82;24.80;100060.09;4322601;33;19972;-80
2022/07/11 11:53:39;;;;;;;;;;;;;;;27.20;22.96;100070.72;4324559;32;20012;-80
2022/07/11 11:56:13;;;;;;;;;;;;;;;27.29;23.78;100075.59;4321166;33;20031;-82
2022/07/11 11:58:43;;;;;;;;;;;;;;;27.21;23.23;100076.88;4323978;32;20051;-80
2022/07/11 12:01:11;;;;;;;;;;;;;;;26.87;24.11;100078.50;4324609;33;19984;-80
2022/07/11 12:03:48;;;;;;;;;;;;;;;27.05;24.67;100074.09;4323027;33;19995;-85
2022/07/11 12:06:15;;;;;;;;;;;;;;;27.16;22.54;100073.63;4323335;33;20014;-81
2022/07/11 12:08:42;;;;;;;;;;;;;;;26.88;23.03;100070.44;4322080;32;19987;-79
2022/07/11 12:11:15;;;;;;;;;;;;;;;26.76;23.15;100081.63;4324475;33;19976;-79
2022/07/11 12:13:42;;;;;;;;;;;;;;;26.50;24.95;100084.66;4326111;32;20064;-80
2022/07/11 12:19:01;;;;;;;;;;;;;;;26.98;23.38;100077.97;4309879;33;19992;-80
2022/07/11 12:21:32;;;;;;;;;;;;;;;27.12;23.10;100073.72;4310063;33;20298;-78
2022/07/11 12:24:00;;;;;;;;;;;;;;;27.39;23.13;100070.66;4330449;32;20028;-79
2022/07/11 12:26:27;;;;;;;;;;;;;;;27.28;24.87;100078.31;4309240;33;20791;-81
2022/07/11 12:29:04;;;;;;;;;;;;;;;27.19;23.65;100065.50;4332898;33;20051;-84
2022/07/11 12:31:40;;;;;;;;;;;;;;;27.45;21.70;100064.19;4316848;33;19976;-83
2022/07/11 12:34:07;;;;;;;;;;;;;;;27.61;22.11;100059.81;4325715;33;19992;-80
2022/07/11 12:36:34;;;;;;;;;;;;;;;27.55;22.11;100054.81;4325415;33;20360;-79
2022/07/11 12:39:02;;;;;;;;;;;;;;;28.03;21.52;100055.91;4325611;33;20023;-80
2022/07/11 12:41:29;;;;;;;;;;;;;;;27.74;21.84;100060.91;4325519;33;20575;-79
2022/07/11 12:46:42;;;;;;;;;;;;;;;27.27;21.43;100061.50;4325141;33;19996;-80
2022/07/11 12:49:10;;;;;;;;;;;;;;;27.13;22.04;100069.28;4324014;33;20005;-79
2022/07/11 12:51:40;;;;;;;;;;;;;;;27.13;22.17;100058.63;4325138;33;20007;-79
2022/07/11 12:54:11;;;;;;;;;;;;;;;27.04;22.29;100064.41;4325122;33;20313;-79
2022/07/11 12:56:38;;;;;;;;;;;;;;;26.87;22.40;100055.44;4324737;33;20022;-81